createdAt,value
2022-11-15T00:00:19.746Z,6.69
2022-11-15T00:01:19.656Z,6.83
2022-11-15T00:02:19.624Z,6.72
2022-11-15T00:03:19.494Z,6.76
2022-11-15T00:04:19.412Z,6.78
2022-11-15T00:05:19.331Z,6.81
2022-11-15T00:06:19.245Z,6.86
2022-11-15T00:07:48.299Z,6.83
2022-11-15T00:08:19.186Z,6.87
2022-11-15T00:09:18.999Z,6.80
2022-11-15T00:10:18.917Z,6.70
2022-11-15T00:11:18.837Z,6.70
2022-11-15T00:12:18.751Z,6.72
2022-11-15T00:13:18.670Z,6.68
2022-11-15T00:14:18.689Z,6.63
2022-11-15T00:15:18.495Z,6.63
2022-11-15T00:16:18.416Z,6.62
2022-11-15T00:17:18.330Z,6.68
2022-11-15T00:18:18.248Z,6.52
2022-11-15T00:19:18.171Z,6.52
2022-11-15T00:20:18.089Z,6.52
2022-11-15T00:21:17.999Z,6.51
2022-11-15T00:22:17.917Z,6.42
2022-11-15T00:23:17.834Z,6.42
2022-11-15T00:24:17.755Z,6.33
2022-11-15T00:25:17.674Z,6.24
2022-11-15T00:26:17.600Z,6.21
2022-11-15T00:27:17.527Z,6.18
2022-11-15T00:28:17.423Z,6.17
2022-11-15T00:29:17.347Z,6.17
2022-11-15T00:30:17.261Z,6.07
2022-11-15T00:31:17.175Z,6.04
2022-11-15T00:32:17.094Z,5.99
2022-11-15T00:33:17.005Z,5.99
2022-11-15T00:34:16.933Z,6.04
2022-11-15T00:35:16.844Z,6.08
2022-11-15T00:36:16.763Z,6.07
2022-11-15T00:37:16.674Z,5.99
2022-11-15T00:38:16.595Z,6.03
2022-11-15T00:39:16.513Z,6.13
2022-11-15T00:40:16.429Z,6.07
2022-11-15T00:41:16.344Z,6.10
2022-11-15T00:42:16.263Z,6.17
2022-11-15T00:43:16.180Z,6.15
2022-11-15T00:44:16.099Z,6.14
2022-11-15T00:45:16.023Z,6.21
2022-11-15T00:46:15.932Z,6.14
2022-11-15T00:47:15.846Z,6.03
2022-11-15T00:48:15.764Z,6.03
2022-11-15T00:49:15.685Z,6.13
2022-11-15T00:50:15.715Z,6.00
2022-11-15T00:51:15.520Z,6.15
2022-11-15T00:52:15.431Z,6.24
2022-11-15T00:53:15.355Z,6.29
2022-11-15T00:54:15.273Z,6.26
2022-11-15T00:55:15.186Z,6.21
2022-11-15T00:56:15.101Z,6.29
2022-11-15T00:57:15.016Z,6.24
2022-11-15T00:58:14.938Z,6.24
2022-11-15T00:59:14.855Z,6.30
2022-11-15T01:00:14.770Z,6.33
2022-11-15T01:01:14.748Z,6.24
2022-11-15T01:02:14.600Z,6.18
2022-11-15T01:03:14.518Z,6.18
2022-11-15T01:04:14.436Z,6.18
2022-11-15T01:05:14.362Z,6.17
2022-11-15T01:06:14.270Z,6.18
2022-11-15T01:07:14.294Z,6.26
2022-11-15T01:08:14.111Z,6.24
2022-11-15T01:09:14.023Z,6.13
2022-11-15T01:10:13.943Z,6.18
2022-11-15T01:11:13.857Z,6.15
2022-11-15T01:12:13.770Z,6.03
2022-11-15T01:13:13.693Z,5.97
2022-11-15T01:14:13.608Z,5.90
2022-11-15T01:15:13.532Z,5.99
2022-11-15T01:16:13.439Z,5.89
2022-11-15T01:17:13.355Z,5.85
2022-11-15T01:18:13.272Z,5.86
2022-11-15T01:19:13.195Z,5.80
2022-11-15T01:20:13.110Z,5.77
2022-11-15T01:21:13.034Z,5.80
2022-11-15T01:22:12.943Z,5.86
2022-11-15T01:23:12.864Z,5.86
2022-11-15T01:24:12.775Z,5.77
2022-11-15T01:25:12.702Z,5.95
2022-11-15T01:26:12.610Z,5.97
2022-11-15T01:27:12.528Z,6.04
2022-11-15T01:28:12.447Z,5.85
2022-11-15T01:29:12.362Z,5.71
2022-11-15T01:30:12.274Z,5.68
2022-11-15T01:31:12.200Z,5.67
2022-11-15T01:32:12.113Z,5.59
2022-11-15T01:33:12.032Z,5.53
2022-11-15T01:34:11.947Z,5.56
2022-11-15T01:35:11.861Z,5.54
2022-11-15T01:36:11.778Z,5.63
2022-11-15T01:37:11.696Z,5.65
2022-11-15T01:38:11.612Z,5.74
2022-11-15T01:39:11.532Z,5.67
2022-11-15T01:40:11.442Z,5.71
2022-11-15T01:41:11.361Z,5.72
2022-11-15T01:42:11.279Z,5.71
2022-11-15T01:43:11.202Z,5.86
2022-11-15T01:44:11.113Z,5.83
2022-11-15T01:45:11.029Z,5.85
2022-11-15T01:46:10.946Z,5.83
2022-11-15T01:47:10.868Z,5.74
2022-11-15T01:48:10.782Z,5.59
2022-11-15T01:49:10.700Z,5.59
2022-11-15T01:50:10.610Z,5.49
2022-11-15T01:51:10.531Z,5.34
2022-11-15T01:52:10.446Z,5.35
2022-11-15T01:53:10.370Z,5.31
2022-11-15T01:54:10.283Z,5.35
2022-11-15T01:55:10.197Z,5.31
2022-11-15T01:56:10.118Z,5.34
2022-11-15T01:57:10.028Z,5.26
2022-11-15T01:58:09.957Z,5.35
2022-11-15T01:59:09.865Z,5.47
2022-11-15T02:00:09.797Z,5.42
2022-11-15T02:01:09.770Z,5.39
2022-11-15T02:02:09.627Z,5.44
2022-11-15T02:03:09.534Z,5.54
2022-11-15T02:04:09.446Z,5.50
2022-11-15T02:05:09.367Z,5.52
2022-11-15T02:06:09.280Z,5.56
2022-11-15T02:07:09.241Z,5.59
2022-11-15T02:08:09.126Z,5.56
2022-11-15T02:09:09.035Z,5.60
2022-11-15T02:10:08.947Z,5.42
2022-11-15T02:11:08.862Z,5.60
2022-11-15T02:12:08.782Z,5.44
2022-11-15T02:13:08.701Z,5.53
2022-11-15T02:14:08.614Z,5.57
2022-11-15T02:15:08.539Z,5.50
2022-11-15T02:16:08.450Z,5.62
2022-11-15T02:17:08.366Z,5.50
2022-11-15T02:18:08.279Z,5.62
2022-11-15T02:19:08.203Z,5.52
2022-11-15T02:20:08.113Z,5.52
2022-11-15T02:21:08.032Z,5.54
2022-11-15T02:22:07.950Z,5.62
2022-11-15T02:23:07.869Z,5.62
2022-11-15T02:24:07.787Z,5.70
2022-11-15T02:25:07.699Z,5.68
2022-11-15T02:26:07.615Z,5.63
2022-11-15T02:27:07.536Z,5.56
2022-11-15T02:28:07.455Z,5.42
2022-11-15T02:29:07.367Z,5.44
2022-11-15T02:30:07.310Z,5.45
2022-11-15T02:31:07.196Z,5.42
2022-11-15T02:32:07.113Z,5.38
2022-11-15T02:33:07.035Z,5.26
2022-11-15T02:34:06.947Z,5.29
2022-11-15T02:35:06.866Z,5.28
2022-11-15T02:36:06.782Z,5.26
2022-11-15T02:37:06.702Z,5.17
2022-11-15T02:38:06.613Z,5.20
2022-11-15T02:39:06.532Z,5.23
2022-11-15T02:40:06.450Z,5.17
2022-11-15T02:41:06.365Z,5.21
2022-11-15T02:42:06.276Z,5.26
2022-11-15T02:43:08.409Z,5.17
2022-11-15T02:44:06.112Z,5.23
2022-11-15T02:45:06.028Z,5.32
2022-11-15T02:46:05.943Z,5.35
2022-11-15T02:47:05.866Z,5.31
2022-11-15T02:48:05.776Z,5.31
2022-11-15T02:49:05.697Z,5.31
2022-11-15T02:50:05.614Z,5.34
2022-11-15T02:51:05.530Z,5.35
2022-11-15T02:52:05.446Z,5.47
2022-11-15T02:53:05.363Z,5.42
2022-11-15T02:54:05.280Z,5.41
2022-11-15T02:55:05.194Z,5.36
2022-11-15T02:56:05.112Z,5.42
2022-11-15T02:57:05.031Z,5.34
2022-11-15T02:58:04.945Z,5.32
2022-11-15T02:59:04.868Z,5.29
2022-11-15T03:00:04.778Z,5.18
2022-11-15T03:01:04.782Z,5.18
2022-11-15T03:02:04.612Z,5.11
2022-11-15T03:03:04.528Z,5.18
2022-11-15T03:04:04.441Z,5.10
2022-11-15T03:05:04.359Z,5.00
2022-11-15T03:06:04.274Z,5.05
2022-11-15T03:07:04.254Z,4.95
2022-11-15T03:08:04.107Z,5.02
2022-11-15T03:09:04.028Z,5.02
2022-11-15T03:10:03.943Z,5.11
2022-11-15T03:11:03.863Z,5.06
2022-11-15T03:12:03.779Z,5.08
2022-11-15T03:13:03.695Z,5.00
2022-11-15T03:14:03.613Z,5.05
2022-11-15T03:15:03.527Z,5.00
2022-11-15T03:16:03.438Z,5.06
2022-11-15T03:17:03.360Z,5.08
2022-11-15T03:18:03.275Z,5.00
2022-11-15T03:19:03.192Z,4.98
2022-11-15T03:20:03.116Z,4.99
2022-11-15T03:21:03.024Z,5.00
2022-11-15T03:22:02.941Z,4.99
2022-11-15T03:23:02.860Z,4.91
2022-11-15T03:24:02.774Z,4.91
2022-11-15T03:25:02.689Z,4.87
2022-11-15T03:26:02.606Z,4.84
2022-11-15T03:27:02.535Z,4.85
2022-11-15T03:28:02.440Z,4.85
2022-11-15T03:29:02.353Z,4.91
2022-11-15T03:30:02.270Z,4.85
2022-11-15T03:31:02.190Z,4.85
2022-11-15T03:32:02.105Z,4.72
2022-11-15T03:33:02.019Z,4.66
2022-11-15T03:34:01.949Z,4.64
2022-11-15T03:35:01.856Z,4.64
2022-11-15T03:36:01.775Z,4.69
2022-11-15T03:37:01.684Z,4.73
2022-11-15T03:38:01.629Z,4.72
2022-11-15T03:39:01.534Z,4.77
2022-11-15T03:40:01.433Z,4.87
2022-11-15T03:41:01.352Z,4.87
2022-11-15T03:42:01.267Z,4.84
2022-11-15T03:43:01.188Z,4.83
2022-11-15T03:44:01.098Z,4.76
2022-11-15T03:45:01.017Z,4.72
2022-11-15T03:46:00.946Z,4.68
2022-11-15T03:47:00.850Z,4.66
2022-11-15T03:48:00.763Z,4.62
2022-11-15T03:49:00.685Z,4.68
2022-11-15T03:50:00.597Z,4.68
2022-11-15T03:51:00.517Z,4.72
2022-11-15T03:52:00.435Z,4.62
2022-11-15T03:53:00.350Z,4.66
2022-11-15T03:54:00.264Z,4.62
2022-11-15T03:55:00.183Z,4.62
2022-11-15T03:56:00.109Z,4.61
2022-11-15T03:57:00.015Z,4.62
2022-11-15T03:57:59.925Z,4.59
2022-11-15T03:58:59.844Z,4.50
2022-11-15T03:59:59.758Z,4.58
2022-11-15T04:00:59.718Z,4.56
2022-11-15T04:01:59.592Z,4.55
2022-11-15T04:02:59.509Z,4.54
2022-11-15T04:03:59.423Z,4.50
2022-11-15T04:04:59.347Z,4.50
2022-11-15T04:05:59.259Z,4.54
2022-11-15T04:06:59.262Z,4.54
2022-11-15T04:07:59.089Z,4.58
2022-11-15T04:08:59.005Z,4.61
2022-11-15T04:09:58.925Z,4.56
2022-11-15T04:10:59.026Z,4.43
2022-11-15T04:11:58.758Z,4.48
2022-11-15T04:12:58.673Z,4.50
2022-11-15T04:13:58.591Z,4.43
2022-11-15T04:14:58.510Z,4.47
2022-11-15T04:15:58.421Z,4.48
2022-11-15T04:16:58.340Z,4.52
2022-11-15T04:17:58.252Z,4.56
2022-11-15T04:18:58.172Z,4.64
2022-11-15T04:19:58.092Z,4.61
2022-11-15T04:20:58.003Z,4.73
2022-11-15T04:21:57.919Z,4.56
2022-11-15T04:22:57.837Z,4.59
2022-11-15T04:23:57.753Z,4.48
2022-11-15T04:24:57.669Z,4.47
2022-11-15T04:25:57.584Z,4.44
2022-11-15T04:26:57.525Z,4.47
2022-11-15T04:27:57.420Z,4.52
2022-11-15T04:28:57.333Z,4.59
2022-11-15T04:29:57.250Z,4.54
2022-11-15T04:30:57.175Z,4.44
2022-11-15T04:31:57.085Z,4.46
2022-11-15T04:32:56.997Z,4.41
2022-11-15T04:33:56.915Z,4.37
2022-11-15T04:34:56.828Z,4.38
2022-11-15T04:35:56.790Z,4.34
2022-11-15T04:36:56.665Z,4.37
2022-11-15T04:37:56.577Z,4.38
2022-11-15T04:38:56.491Z,4.40
2022-11-15T04:39:56.407Z,4.36
2022-11-15T04:40:56.329Z,4.25
2022-11-15T04:41:56.243Z,4.10
2022-11-15T04:43:02.259Z,4.11
2022-11-15T04:43:56.076Z,4.16
2022-11-15T04:44:55.988Z,4.32
2022-11-15T04:45:55.906Z,4.36
2022-11-15T04:46:55.825Z,4.36
2022-11-15T04:47:55.737Z,4.38
2022-11-15T04:48:58.831Z,4.43
2022-11-15T04:49:55.582Z,4.37
2022-11-15T04:50:55.489Z,4.34
2022-11-15T04:51:55.400Z,4.23
2022-11-15T04:52:55.315Z,4.19
2022-11-15T04:53:55.237Z,4.16
2022-11-15T04:54:55.151Z,4.12
2022-11-15T04:55:55.068Z,4.12
2022-11-15T04:56:54.985Z,4.10
2022-11-15T04:57:54.895Z,4.12
2022-11-15T04:58:54.817Z,4.20
2022-11-15T04:59:54.729Z,4.30
2022-11-15T05:00:54.711Z,4.38
2022-11-15T05:01:54.564Z,4.38
2022-11-15T05:02:54.477Z,4.38
2022-11-15T05:03:54.393Z,4.32
2022-11-15T05:04:54.308Z,4.34
2022-11-15T05:05:54.221Z,4.34
2022-11-15T05:06:54.187Z,4.36
2022-11-15T05:07:54.063Z,4.23
2022-11-15T05:08:53.973Z,4.29
2022-11-15T05:09:53.889Z,4.28
2022-11-15T05:10:53.801Z,4.28
2022-11-15T05:11:53.719Z,4.34
2022-11-15T05:12:53.640Z,4.38
2022-11-15T05:13:53.554Z,4.40
2022-11-15T05:14:53.471Z,4.34
2022-11-15T05:15:53.384Z,4.37
2022-11-15T05:16:53.301Z,4.41
2022-11-15T05:17:53.217Z,4.43
2022-11-15T05:18:53.129Z,4.47
2022-11-15T05:19:53.049Z,4.48
2022-11-15T05:20:52.963Z,4.47
2022-11-15T05:21:52.882Z,4.55
2022-11-15T05:22:52.794Z,4.54
2022-11-15T05:23:52.717Z,4.47
2022-11-15T05:24:52.629Z,4.54
2022-11-15T05:25:52.546Z,4.46
2022-11-15T05:26:52.463Z,4.46
2022-11-15T05:27:52.379Z,4.38
2022-11-15T05:28:52.290Z,4.34
2022-11-15T05:29:52.208Z,4.25
2022-11-15T05:30:52.126Z,4.10
2022-11-15T05:31:52.039Z,4.11
2022-11-15T05:32:51.958Z,4.10
2022-11-15T05:33:51.876Z,4.05
2022-11-15T05:34:51.785Z,4.11
2022-11-15T05:35:51.701Z,4.16
2022-11-15T05:36:51.618Z,4.02
2022-11-15T05:37:51.538Z,3.98
2022-11-15T05:38:51.454Z,3.89
2022-11-15T05:39:51.371Z,3.90
2022-11-15T05:40:51.282Z,3.93
2022-11-15T05:41:51.200Z,3.83
2022-11-15T05:42:51.112Z,3.87
2022-11-15T05:43:51.030Z,3.75
2022-11-15T05:44:50.951Z,3.84
2022-11-15T05:45:50.863Z,3.86
2022-11-15T05:46:50.776Z,3.83
2022-11-15T05:47:50.695Z,3.84
2022-11-15T05:48:50.606Z,3.84
2022-11-15T05:49:50.526Z,3.93
2022-11-15T05:50:50.443Z,4.00
2022-11-15T05:51:50.361Z,3.92
2022-11-15T05:52:50.274Z,3.84
2022-11-15T05:53:50.190Z,3.84
2022-11-15T05:54:50.110Z,3.74
2022-11-15T05:55:50.021Z,3.74
2022-11-15T05:56:49.933Z,3.64
2022-11-15T05:57:49.852Z,3.77
2022-11-15T05:58:49.766Z,3.74
2022-11-15T05:59:49.686Z,3.74
2022-11-15T06:00:49.596Z,3.79
2022-11-15T06:01:49.551Z,3.74
2022-11-15T06:02:49.429Z,3.68
2022-11-15T06:03:49.354Z,3.77
2022-11-15T06:04:49.262Z,3.80
2022-11-15T06:05:49.181Z,3.86
2022-11-15T06:06:49.130Z,4.04
2022-11-15T06:07:49.010Z,4.05
2022-11-15T06:08:48.930Z,4.10
2022-11-15T06:09:48.843Z,4.11
2022-11-15T06:10:48.762Z,4.11
2022-11-15T06:11:48.680Z,4.04
2022-11-15T06:12:48.591Z,3.94
2022-11-15T06:13:48.503Z,3.84
2022-11-15T06:14:48.421Z,3.77
2022-11-15T06:15:48.340Z,3.74
2022-11-15T06:16:48.261Z,3.64
2022-11-15T06:17:48.175Z,3.62
2022-11-15T06:18:48.086Z,3.74
2022-11-15T06:19:48.006Z,3.83
2022-11-15T06:20:47.914Z,3.84
2022-11-15T06:21:47.833Z,3.83
2022-11-15T06:22:47.744Z,3.82
2022-11-15T06:23:47.663Z,3.83
2022-11-15T06:24:47.579Z,4.00
2022-11-15T06:25:47.493Z,4.01
2022-11-15T06:26:47.411Z,4.00
2022-11-15T06:27:47.325Z,4.11
2022-11-15T06:28:47.244Z,4.23
2022-11-15T06:29:47.162Z,4.16
2022-11-15T06:30:52.038Z,4.18
2022-11-15T06:31:46.989Z,4.16
2022-11-15T06:32:46.916Z,4.20
2022-11-15T06:33:46.826Z,4.15
2022-11-15T06:34:46.738Z,4.12
2022-11-15T06:35:46.655Z,4.08
2022-11-15T06:36:46.566Z,4.16
2022-11-15T06:37:46.489Z,4.19
2022-11-15T06:38:46.401Z,4.20
2022-11-15T06:39:46.315Z,4.36
2022-11-15T06:40:46.226Z,4.38
2022-11-15T06:41:46.149Z,4.36
2022-11-15T06:42:46.059Z,4.44
2022-11-15T06:43:45.982Z,4.59
2022-11-15T06:44:45.895Z,4.50
2022-11-15T06:45:45.809Z,4.50
2022-11-15T06:46:45.724Z,4.54
2022-11-15T06:47:45.645Z,4.56
2022-11-15T06:48:45.554Z,4.58
2022-11-15T06:49:45.471Z,4.56
2022-11-15T06:50:45.394Z,4.58
2022-11-15T06:51:45.303Z,4.65
2022-11-15T06:52:45.218Z,4.69
2022-11-15T06:53:45.140Z,4.64
2022-11-15T06:54:45.049Z,4.65
2022-11-15T06:55:44.969Z,4.66
2022-11-15T06:56:44.884Z,4.69
2022-11-15T06:57:44.804Z,4.72
2022-11-15T06:58:44.714Z,4.72
2022-11-15T06:59:44.636Z,4.69
2022-11-15T07:00:44.544Z,4.55
2022-11-15T07:01:44.492Z,4.56
2022-11-15T07:02:44.377Z,4.62
2022-11-15T07:03:44.295Z,4.59
2022-11-15T07:04:44.208Z,4.59
2022-11-15T07:05:44.125Z,4.76
2022-11-15T07:06:44.055Z,4.65
2022-11-15T07:07:43.957Z,4.65
2022-11-15T07:08:43.874Z,4.77
2022-11-15T07:09:43.788Z,4.87
2022-11-15T07:10:43.709Z,4.92
2022-11-15T07:11:43.623Z,4.98
2022-11-15T07:12:43.533Z,5.14
2022-11-15T07:13:43.459Z,5.13
2022-11-15T07:14:43.369Z,5.28
2022-11-15T07:15:43.285Z,5.38
2022-11-15T07:16:43.199Z,5.65
2022-11-15T07:17:43.117Z,5.57
2022-11-15T07:18:43.032Z,5.72
2022-11-15T07:19:42.947Z,5.89
2022-11-15T07:20:42.861Z,5.96
2022-11-15T07:21:42.783Z,6.08
2022-11-15T07:22:42.698Z,6.27
2022-11-15T07:23:42.616Z,6.34
2022-11-15T07:24:42.524Z,6.42
2022-11-15T07:25:42.451Z,6.65
2022-11-15T07:26:42.369Z,6.80
2022-11-15T07:27:42.282Z,6.94
2022-11-15T07:28:42.196Z,6.94
2022-11-15T07:29:42.109Z,7.19
2022-11-15T07:30:45.222Z,7.26
2022-11-15T07:31:41.945Z,7.44
2022-11-15T07:32:41.858Z,7.64
2022-11-15T07:33:41.778Z,7.83
2022-11-15T07:34:41.692Z,8.04
2022-11-15T07:35:41.609Z,8.25
2022-11-15T07:36:41.526Z,8.51
2022-11-15T07:37:41.441Z,8.73
2022-11-15T07:38:43.149Z,8.91
2022-11-15T07:39:41.275Z,8.98
2022-11-15T07:40:41.195Z,9.16
2022-11-15T07:41:41.113Z,9.32
2022-11-15T07:42:41.024Z,9.40
2022-11-15T07:43:40.940Z,9.64
2022-11-15T07:44:40.863Z,9.67
2022-11-15T07:45:40.781Z,9.71
2022-11-15T07:46:40.692Z,9.74
2022-11-15T07:47:40.609Z,9.70
2022-11-15T07:48:44.462Z,9.74
2022-11-15T07:49:40.446Z,10.04
2022-11-15T07:50:40.362Z,10.19
2022-11-15T07:51:40.289Z,10.29
2022-11-15T07:52:40.203Z,10.43
2022-11-15T07:53:40.120Z,10.40
2022-11-15T07:54:40.048Z,10.41
2022-11-15T07:55:39.951Z,10.47
2022-11-15T07:56:39.864Z,10.46
2022-11-15T07:57:39.785Z,10.58
2022-11-15T07:58:39.704Z,10.56
2022-11-15T07:59:39.622Z,10.60
2022-11-15T08:00:39.534Z,10.56
2022-11-15T08:01:39.573Z,10.59
2022-11-15T08:02:39.555Z,10.28
2022-11-15T08:03:39.294Z,10.21
2022-11-15T08:04:39.206Z,10.29
2022-11-15T08:05:39.130Z,10.29
2022-11-15T08:06:39.044Z,10.41
2022-11-15T08:07:38.964Z,10.40
2022-11-15T08:08:38.883Z,10.37
2022-11-15T08:09:38.797Z,10.43
2022-11-15T08:10:40.852Z,10.56
2022-11-15T08:11:38.638Z,10.51
2022-11-15T08:12:38.553Z,10.46
2022-11-15T08:13:38.470Z,10.58
2022-11-15T08:14:38.386Z,10.67
2022-11-15T08:15:38.313Z,10.75
2022-11-15T08:16:38.223Z,10.84
2022-11-15T08:17:38.145Z,10.91
2022-11-15T08:18:38.061Z,11.03
2022-11-15T08:19:37.980Z,11.02
2022-11-15T08:20:37.896Z,11.13
2022-11-15T08:21:37.823Z,11.29
2022-11-15T08:22:37.732Z,11.17
2022-11-15T08:23:37.655Z,11.26
2022-11-15T08:24:37.571Z,11.31
2022-11-15T08:25:37.494Z,11.24
2022-11-15T08:26:37.413Z,11.38
2022-11-15T08:27:37.380Z,11.41
2022-11-15T08:28:37.249Z,11.41
2022-11-15T08:29:37.169Z,11.57
2022-11-15T08:30:37.091Z,11.72
2022-11-15T08:31:37.010Z,11.57
2022-11-15T08:32:36.925Z,11.61
2022-11-15T08:33:36.855Z,11.57
2022-11-15T08:34:36.765Z,11.74
2022-11-15T08:35:36.680Z,11.87
2022-11-15T08:36:43.268Z,11.97
2022-11-15T08:37:36.520Z,12.03
2022-11-15T08:38:36.438Z,12.13
2022-11-15T08:39:36.366Z,12.02
2022-11-15T08:40:36.278Z,11.97
2022-11-15T08:41:36.196Z,11.95
2022-11-15T08:42:36.115Z,11.93
2022-11-15T08:43:36.038Z,11.87
2022-11-15T08:44:35.960Z,12.09
2022-11-15T08:45:35.876Z,12.05
2022-11-15T08:46:35.798Z,12.03
2022-11-15T08:47:35.716Z,12.12
2022-11-15T08:48:35.794Z,11.93
2022-11-15T08:49:35.549Z,11.94
2022-11-15T08:50:35.479Z,11.84
2022-11-15T08:51:35.398Z,11.95
2022-11-15T08:52:35.307Z,12.24
2022-11-15T08:53:35.227Z,12.42
2022-11-15T08:54:35.150Z,12.60
2022-11-15T08:55:35.075Z,12.69
2022-11-15T08:56:34.986Z,12.74
2022-11-15T08:57:34.908Z,12.70
2022-11-15T08:58:35.148Z,12.73
2022-11-15T08:59:34.747Z,12.64
2022-11-15T09:00:34.675Z,12.63
2022-11-15T09:01:34.605Z,12.70
2022-11-15T09:02:34.510Z,12.81
2022-11-15T09:03:34.429Z,12.99
2022-11-15T09:04:34.347Z,13.07
2022-11-15T09:05:34.270Z,13.11
2022-11-15T09:06:34.184Z,13.27
2022-11-15T09:07:34.167Z,13.25
2022-11-15T09:08:47.465Z,13.25
2022-11-15T09:09:33.950Z,13.29
2022-11-15T09:10:33.869Z,13.37
2022-11-15T09:11:33.806Z,13.45
2022-11-15T09:12:33.707Z,13.40
2022-11-15T09:13:33.631Z,13.40
2022-11-15T09:14:33.555Z,13.40
2022-11-15T09:15:33.471Z,13.56
2022-11-15T09:16:33.388Z,13.74
2022-11-15T09:17:33.309Z,13.91
2022-11-15T09:18:33.572Z,14.02
2022-11-15T09:19:33.150Z,13.95
2022-11-15T09:20:33.073Z,13.84
2022-11-15T09:21:32.991Z,13.95
2022-11-15T09:22:32.916Z,13.98
2022-11-15T09:23:32.835Z,13.92
2022-11-15T09:24:32.756Z,13.94
2022-11-15T09:25:32.675Z,13.95
2022-11-15T09:26:32.598Z,13.95
2022-11-15T09:27:32.518Z,13.92
2022-11-15T09:28:32.611Z,13.96
2022-11-15T09:29:32.359Z,13.94
2022-11-15T09:30:32.352Z,13.89
2022-11-15T09:31:32.202Z,13.87
2022-11-15T09:32:37.870Z,13.98
2022-11-15T09:33:32.263Z,13.95
2022-11-15T09:34:31.962Z,13.84
2022-11-15T09:35:31.887Z,13.81
2022-11-15T09:36:31.809Z,13.61
2022-11-15T09:37:31.728Z,13.62
2022-11-15T09:38:31.849Z,13.44
2022-11-15T09:39:31.569Z,13.44
2022-11-15T09:40:31.487Z,13.40
2022-11-15T09:41:31.406Z,13.55
2022-11-15T09:42:31.330Z,13.65
2022-11-15T09:43:31.257Z,13.73
2022-11-15T09:44:31.176Z,13.95
2022-11-15T09:45:31.105Z,14.10
2022-11-15T09:46:31.015Z,14.29
2022-11-15T09:47:30.935Z,14.34
2022-11-15T09:48:31.155Z,14.36
2022-11-15T09:49:30.780Z,14.52
2022-11-15T09:50:30.704Z,14.49
2022-11-15T09:51:30.629Z,14.52
2022-11-15T09:52:30.553Z,14.46
2022-11-15T09:54:01.089Z,14.56
2022-11-15T09:54:52.231Z,14.67
2022-11-15T09:55:30.307Z,14.68
2022-11-15T09:56:30.235Z,14.69
2022-11-15T09:57:30.152Z,14.79
2022-11-15T09:58:30.664Z,14.80
2022-11-15T09:59:29.998Z,14.79
2022-11-15T10:00:47.383Z,14.88
2022-11-15T10:01:29.876Z,14.88
2022-11-15T10:02:29.763Z,14.75
2022-11-15T10:03:29.684Z,14.60
2022-11-15T10:04:29.611Z,14.67
2022-11-15T10:05:29.531Z,14.67
2022-11-15T10:06:29.449Z,14.68
2022-11-15T10:07:29.464Z,14.71
2022-11-15T10:08:29.590Z,14.79
2022-11-15T10:09:29.215Z,14.84
2022-11-15T10:10:29.232Z,14.91
2022-11-15T10:11:38.234Z,14.94
2022-11-15T10:12:28.986Z,15.03
2022-11-15T10:13:28.903Z,15.13
2022-11-15T10:14:28.838Z,15.16
2022-11-15T10:15:28.753Z,15.23
2022-11-15T10:16:28.671Z,15.16
2022-11-15T10:17:28.592Z,15.05
2022-11-15T10:18:28.745Z,15.09
2022-11-15T10:19:28.438Z,15.03
2022-11-15T10:20:28.367Z,15.09
2022-11-15T10:21:28.284Z,15.03
2022-11-15T10:22:28.209Z,15.12
2022-11-15T10:23:28.131Z,15.10
2022-11-15T10:24:28.052Z,15.13
2022-11-15T10:25:27.982Z,15.10
2022-11-15T10:26:27.894Z,15.13
2022-11-15T10:27:27.818Z,15.23
2022-11-15T10:28:27.737Z,15.18
2022-11-15T10:29:27.683Z,15.16
2022-11-15T10:30:27.584Z,15.16
2022-11-15T10:31:27.507Z,15.15
2022-11-15T10:32:27.427Z,15.27
2022-11-15T10:33:27.345Z,15.15
2022-11-15T10:34:27.275Z,15.27
2022-11-15T10:35:27.192Z,15.12
2022-11-15T10:36:27.119Z,15.24
2022-11-15T10:37:27.044Z,15.16
2022-11-15T10:38:26.959Z,15.26
2022-11-15T10:39:26.881Z,15.31
2022-11-15T10:40:26.810Z,15.38
2022-11-15T10:41:26.731Z,15.43
2022-11-15T10:42:26.653Z,15.57
2022-11-15T10:43:26.573Z,15.60
2022-11-15T10:44:26.495Z,15.75
2022-11-15T10:45:26.415Z,15.78
2022-11-15T10:46:46.689Z,15.64
2022-11-15T10:47:26.263Z,15.59
2022-11-15T10:48:26.182Z,15.73
2022-11-15T10:49:26.105Z,15.83
2022-11-15T10:50:26.030Z,15.78
2022-11-15T10:51:25.951Z,15.78
2022-11-15T10:52:25.873Z,15.81
2022-11-15T10:53:25.814Z,15.88
2022-11-15T10:54:25.720Z,15.97
2022-11-15T10:55:25.642Z,16.03
2022-11-15T10:56:25.570Z,15.96
2022-11-15T10:57:25.484Z,15.96
2022-11-15T10:58:25.410Z,16.01
2022-11-15T10:59:25.330Z,15.94
2022-11-15T11:00:25.252Z,15.96
2022-11-15T11:01:25.217Z,15.89
2022-11-15T11:02:25.103Z,15.96
2022-11-15T11:03:25.022Z,15.89
2022-11-15T11:04:24.947Z,15.79
2022-11-15T11:05:24.864Z,15.67
2022-11-15T11:06:24.797Z,15.59
2022-11-15T11:07:24.904Z,15.57
2022-11-15T11:08:24.634Z,15.45
2022-11-15T11:09:24.557Z,15.52
2022-11-15T11:10:55.008Z,15.52
2022-11-15T11:11:24.404Z,15.53
2022-11-15T11:12:24.325Z,15.63
2022-11-15T11:13:24.261Z,15.61
2022-11-15T11:14:24.185Z,15.76
2022-11-15T11:15:24.093Z,15.67
2022-11-15T11:16:24.019Z,15.70
2022-11-15T11:17:23.949Z,15.59
2022-11-15T11:18:23.859Z,15.57
2022-11-15T11:19:23.782Z,15.59
2022-11-15T11:20:23.708Z,15.59
2022-11-15T11:21:28.904Z,15.63
2022-11-15T11:22:23.553Z,15.71
2022-11-15T11:23:23.478Z,15.60
2022-11-15T11:24:23.401Z,15.70
2022-11-15T11:25:23.320Z,15.73
2022-11-15T11:26:23.244Z,15.79
2022-11-15T11:27:23.167Z,15.70
2022-11-15T11:28:23.091Z,15.81
2022-11-15T11:29:23.007Z,15.73
2022-11-15T11:30:22.938Z,15.73
2022-11-15T11:31:22.857Z,15.73
2022-11-15T11:32:22.781Z,15.83
2022-11-15T11:33:22.704Z,15.82
2022-11-15T11:34:22.623Z,15.78
2022-11-15T11:35:22.551Z,15.88
2022-11-15T11:36:22.473Z,16.01
2022-11-15T11:37:22.397Z,15.96
2022-11-15T11:38:22.317Z,16.03
2022-11-15T11:39:22.237Z,16.07
2022-11-15T11:40:22.165Z,16.18
2022-11-15T11:41:22.082Z,16.15
2022-11-15T11:42:22.006Z,16.10
2022-11-15T11:43:21.930Z,16.00
2022-11-15T11:44:21.853Z,16.00
2022-11-15T11:45:21.770Z,15.88
2022-11-15T11:46:21.699Z,16.06
2022-11-15T11:47:21.620Z,16.06
2022-11-15T11:48:21.545Z,16.00
2022-11-15T11:49:21.464Z,16.01
2022-11-15T11:50:21.389Z,15.94
2022-11-15T11:51:21.316Z,16.06
2022-11-15T11:52:21.234Z,16.15
2022-11-15T11:53:21.160Z,16.06
2022-11-15T11:54:21.286Z,16.08
2022-11-15T11:55:21.006Z,16.12
2022-11-15T11:56:20.923Z,16.20
2022-11-15T11:57:20.848Z,16.12
2022-11-15T11:58:20.767Z,16.22
2022-11-15T11:59:20.692Z,16.12
2022-11-15T12:00:20.612Z,16.16
2022-11-15T12:01:20.546Z,16.25
2022-11-15T12:02:20.521Z,16.20
2022-11-15T12:03:20.416Z,16.29
2022-11-15T12:04:20.307Z,16.30
2022-11-15T12:05:20.230Z,16.37
2022-11-15T12:06:20.149Z,16.30
2022-11-15T12:07:20.121Z,16.20
2022-11-15T12:08:19.993Z,16.25
2022-11-15T12:09:19.919Z,16.38
2022-11-15T12:10:19.844Z,16.35
2022-11-15T12:11:19.770Z,16.25
2022-11-15T12:12:19.688Z,16.23
2022-11-15T12:13:19.614Z,16.18
2022-11-15T12:14:19.539Z,16.12
2022-11-15T12:15:19.456Z,16.00
2022-11-15T12:16:19.384Z,16.00
2022-11-15T12:17:19.303Z,15.94
2022-11-15T12:18:19.225Z,16.01
2022-11-15T12:19:19.152Z,16.07
2022-11-15T12:20:19.070Z,16.08
2022-11-15T12:21:22.780Z,16.10
2022-11-15T12:22:18.920Z,16.00
2022-11-15T12:23:18.841Z,15.89
2022-11-15T12:24:18.784Z,15.83
2022-11-15T12:25:18.690Z,15.86
2022-11-15T12:26:18.616Z,16.03
2022-11-15T12:27:23.272Z,16.01
2022-11-15T12:28:18.456Z,16.12
2022-11-15T12:29:18.381Z,16.20
2022-11-15T12:30:18.300Z,16.18
2022-11-15T12:31:18.224Z,16.10
2022-11-15T12:32:18.143Z,16.16
2022-11-15T12:33:18.066Z,16.23
2022-11-15T12:34:17.991Z,16.18
2022-11-15T12:35:17.928Z,16.20
2022-11-15T12:36:17.831Z,16.30
2022-11-15T12:37:17.761Z,16.34
2022-11-15T12:38:17.683Z,16.34
2022-11-15T12:39:17.605Z,16.40
2022-11-15T12:40:17.528Z,16.23
2022-11-15T12:41:17.455Z,16.10
2022-11-15T12:42:17.377Z,15.97
2022-11-15T12:43:17.297Z,15.86
2022-11-15T12:44:17.218Z,15.81
2022-11-15T12:45:17.141Z,15.78
2022-11-15T12:46:17.063Z,15.75
2022-11-15T12:47:22.079Z,15.64
2022-11-15T12:48:16.919Z,15.48
2022-11-15T12:49:16.830Z,15.38
2022-11-15T12:50:16.757Z,15.34
2022-11-15T12:51:16.682Z,15.30
2022-11-15T12:52:16.599Z,15.27
2022-11-15T12:53:16.522Z,15.24
2022-11-15T12:54:16.447Z,15.24
2022-11-15T12:55:16.370Z,15.26
2022-11-15T12:56:16.290Z,15.24
2022-11-15T12:57:16.219Z,15.24
2022-11-15T12:58:16.137Z,15.24
2022-11-15T12:59:16.056Z,15.31
2022-11-15T13:00:15.980Z,15.30
2022-11-15T13:01:15.990Z,15.27
2022-11-15T13:02:15.825Z,15.38
2022-11-15T13:03:15.748Z,15.39
2022-11-15T13:04:15.673Z,15.39
2022-11-15T13:05:15.595Z,15.30
2022-11-15T13:06:15.512Z,15.38